createdAt,value
2022-07-30T00:01:17.546Z,23.04
2022-07-30T00:03:44.488Z,23.04
2022-07-30T00:06:11.264Z,23.02
2022-07-30T00:08:38.048Z,23.05
2022-07-30T00:11:04.830Z,23.06
2022-07-30T00:13:31.628Z,23.04
2022-07-30T00:15:58.428Z,22.94
2022-07-30T00:18:25.268Z,22.89
2022-07-30T00:20:52.050Z,22.89
2022-07-30T00:23:18.853Z,22.87
2022-07-30T00:25:45.622Z,22.77
2022-07-30T00:28:12.481Z,22.61
2022-07-30T00:30:40.856Z,22.55
2022-07-30T00:33:08.272Z,22.57
2022-07-30T00:35:35.316Z,22.63
2022-07-30T00:38:02.224Z,22.66
2022-07-30T00:40:29.280Z,22.63
2022-07-30T00:42:56.086Z,22.58
2022-07-30T00:45:23.255Z,22.56
2022-07-30T00:47:50.108Z,22.52
2022-07-30T00:50:17.027Z,22.45
2022-07-30T00:52:44.407Z,22.38
2022-07-30T00:55:12.498Z,22.37
2022-07-30T00:57:41.058Z,22.36
2022-07-30T01:00:09.633Z,22.37
2022-07-30T01:02:36.490Z,22.20
2022-07-30T01:05:03.965Z,22.05
2022-07-30T01:07:30.856Z,21.95
2022-07-30T01:09:57.734Z,21.92
2022-07-30T01:12:25.970Z,21.87
2022-07-30T01:14:53.160Z,21.80
2022-07-30T01:17:20.456Z,21.76
2022-07-30T01:19:56.055Z,21.70
2022-07-30T01:22:35.423Z,21.60
2022-07-30T01:25:20.699Z,21.53
2022-07-30T01:27:49.109Z,21.49
2022-07-30T01:30:17.982Z,21.47
2022-07-30T01:32:46.107Z,21.46
2022-07-30T01:35:14.706Z,21.46
2022-07-30T01:37:42.637Z,21.51
2022-07-30T01:40:10.692Z,21.56
2022-07-30T01:42:38.686Z,21.54
2022-07-30T01:45:06.296Z,21.50
2022-07-30T01:47:34.462Z,21.51
2022-07-30T01:50:02.896Z,21.51
2022-07-30T01:52:31.573Z,21.55
2022-07-30T01:54:59.825Z,21.52
2022-07-30T01:57:26.833Z,21.43
2022-07-30T01:59:57.865Z,21.40
2022-07-30T02:02:25.383Z,21.32
2022-07-30T02:04:52.323Z,21.30
2022-07-30T02:07:24.049Z,21.31
2022-07-30T02:09:58.193Z,21.26
2022-07-30T02:12:29.481Z,21.20
2022-07-30T02:15:35.090Z,21.14
2022-07-30T02:18:04.123Z,21.04
2022-07-30T02:20:33.479Z,20.93
2022-07-30T02:23:05.807Z,20.84
2022-07-30T02:25:33.745Z,20.81
2022-07-30T02:28:02.713Z,20.83
2022-07-30T02:30:31.955Z,20.88
2022-07-30T02:33:03.322Z,20.94
2022-07-30T02:35:31.693Z,21.00
2022-07-30T02:38:01.007Z,21.10
2022-07-30T02:40:29.863Z,21.13
2022-07-30T02:42:57.463Z,21.08
2022-07-30T02:45:27.200Z,21.02
2022-07-30T02:48:01.422Z,20.90
2022-07-30T02:50:28.536Z,20.76
2022-07-30T02:52:56.429Z,20.71
2022-07-30T02:55:24.499Z,20.71
2022-07-30T02:57:52.679Z,20.69
2022-07-30T03:00:21.256Z,20.72
2022-07-30T03:02:48.131Z,20.74
2022-07-30T03:05:16.155Z,20.71
2022-07-30T03:07:44.487Z,20.65
2022-07-30T03:10:12.502Z,20.63
2022-07-30T03:12:41.777Z,20.58
2022-07-30T03:15:09.101Z,20.56
2022-07-30T03:17:38.887Z,20.58
2022-07-30T03:20:08.752Z,20.64
2022-07-30T03:22:39.533Z,20.70
2022-07-30T03:25:07.092Z,20.78
2022-07-30T03:27:36.116Z,20.84
2022-07-30T03:30:03.195Z,20.92
2022-07-30T03:32:30.189Z,20.89
2022-07-30T03:34:58.539Z,20.83
2022-07-30T03:37:34.841Z,20.81
2022-07-30T03:40:02.297Z,20.80
2022-07-30T03:42:31.646Z,20.86
2022-07-30T03:44:58.461Z,20.91
2022-07-30T03:47:25.879Z,20.86
2022-07-30T03:49:52.839Z,20.66
2022-07-30T03:52:20.106Z,20.59
2022-07-30T03:54:47.587Z,20.59
2022-07-30T03:57:46.172Z,20.58
2022-07-30T04:00:14.555Z,20.54
2022-07-30T04:02:47.826Z,20.52
2022-07-30T04:05:23.259Z,20.58
2022-07-30T04:07:52.347Z,20.62
2022-07-30T04:10:20.889Z,20.59
2022-07-30T04:13:20.084Z,20.64
2022-07-30T04:16:38.490Z,20.76
2022-07-30T04:18:48.997Z,20.89
2022-07-30T04:21:17.995Z,20.87
2022-07-30T04:24:04.714Z,20.89
2022-07-30T04:26:34.060Z,20.85
2022-07-30T04:29:01.717Z,20.78
2022-07-30T04:31:29.080Z,20.73
2022-07-30T04:34:04.807Z,20.72
2022-07-30T04:36:39.283Z,20.71
2022-07-30T04:39:06.128Z,20.70
2022-07-30T04:41:35.441Z,20.70
2022-07-30T04:44:31.515Z,20.64
2022-07-30T04:47:17.770Z,20.65
2022-07-30T04:49:57.457Z,20.64
2022-07-30T04:52:24.939Z,20.63
2022-07-30T04:54:54.469Z,20.64
2022-07-30T04:57:21.846Z,20.70
2022-07-30T04:59:49.089Z,20.75
2022-07-30T05:02:16.555Z,20.89
2022-07-30T05:04:44.870Z,21.07
2022-07-30T05:07:14.041Z,21.22
2022-07-30T05:09:42.946Z,21.34
2022-07-30T05:12:10.790Z,21.36
2022-07-30T05:14:37.857Z,21.43
2022-07-30T05:17:05.127Z,21.47
2022-07-30T05:19:32.248Z,21.55
2022-07-30T05:22:02.369Z,21.62
2022-07-30T05:24:31.819Z,21.70
2022-07-30T05:26:59.367Z,21.84
2022-07-30T05:29:27.962Z,21.99
2022-07-30T05:32:07.342Z,22.13
2022-07-30T05:34:35.799Z,22.29
2022-07-30T05:37:02.994Z,22.42
2022-07-30T05:39:30.505Z,22.48
2022-07-30T05:42:22.362Z,22.67
2022-07-30T05:44:52.054Z,22.73
2022-07-30T05:47:21.196Z,22.76
2022-07-30T05:49:49.959Z,22.75
2022-07-30T05:52:16.874Z,22.78
2022-07-30T05:54:43.928Z,22.85
2022-07-30T05:57:29.509Z,22.93
2022-07-30T05:59:57.449Z,23.05
2022-07-30T06:02:43.255Z,23.23
2022-07-30T06:05:45.572Z,23.10
2022-07-30T06:08:12.472Z,23.17
2022-07-30T06:10:39.861Z,23.27
2022-07-30T06:13:06.807Z,23.39
2022-07-30T06:15:33.760Z,23.50
2022-07-30T06:18:02.321Z,23.64
2022-07-30T06:21:01.463Z,23.69
2022-07-30T06:23:34.172Z,23.74
2022-07-30T06:26:21.179Z,23.77
2022-07-30T06:28:48.258Z,23.90
2022-07-30T06:31:24.716Z,24.05
2022-07-30T06:33:52.186Z,24.15
2022-07-30T06:36:19.671Z,24.27
2022-07-30T06:38:58.429Z,24.36
2022-07-30T06:41:39.188Z,24.53
2022-07-30T06:44:06.121Z,24.74
2022-07-30T06:47:07.519Z,24.98
2022-07-30T06:49:35.976Z,25.11
2022-07-30T06:52:04.060Z,25.23
2022-07-30T06:54:30.970Z,25.38
2022-07-30T06:57:06.440Z,25.52
2022-07-30T06:59:33.643Z,25.55
2022-07-30T07:02:46.794Z,25.64
2022-07-30T07:05:14.458Z,25.75
2022-07-30T07:07:56.492Z,25.88
2022-07-30T07:10:28.067Z,26.00
2022-07-30T07:13:16.320Z,26.16
2022-07-30T07:15:43.561Z,26.23
2022-07-30T07:18:15.491Z,26.32
2022-07-30T07:20:49.793Z,26.35
2022-07-30T07:23:16.833Z,26.47
2022-07-30T07:25:47.923Z,26.55
2022-07-30T07:28:14.859Z,26.67
2022-07-30T07:30:44.534Z,26.78
2022-07-30T07:33:13.203Z,26.84
2022-07-30T07:35:48.935Z,26.89
2022-07-30T07:38:21.681Z,26.99
2022-07-30T07:40:49.891Z,27.10
2022-07-30T07:43:16.949Z,27.18
2022-07-30T07:45:43.937Z,27.25
2022-07-30T07:48:11.263Z,27.28
2022-07-30T07:50:59.935Z,27.45
2022-07-30T07:53:29.503Z,27.64
2022-07-30T07:55:57.215Z,27.72
2022-07-30T07:58:26.110Z,27.83
2022-07-30T08:00:57.033Z,27.82
2022-07-30T08:03:38.046Z,27.96
2022-07-30T08:06:23.281Z,28.03
2022-07-30T08:09:10.046Z,28.22
2022-07-30T08:11:57.002Z,28.31
2022-07-30T08:14:53.286Z,28.37
2022-07-30T08:17:46.855Z,28.38
2022-07-30T08:20:19.757Z,28.43
2022-07-30T08:22:47.244Z,28.51
2022-07-30T08:25:22.623Z,28.61
2022-07-30T08:27:53.190Z,28.73
2022-07-30T08:30:20.321Z,28.84
2022-07-30T08:32:47.325Z,28.91
2022-07-30T08:35:14.317Z,29.00
2022-07-30T08:37:42.353Z,29.07
2022-07-30T08:40:10.075Z,29.27
2022-07-30T08:42:47.029Z,29.37
2022-07-30T08:45:15.067Z,29.50
2022-07-30T08:47:44.855Z,29.74
2022-07-30T08:50:21.148Z,29.91
2022-07-30T08:53:10.407Z,29.94
2022-07-30T08:55:38.245Z,29.96
2022-07-30T08:58:20.118Z,30.22
2022-07-30T09:00:47.000Z,30.33
2022-07-30T09:03:13.927Z,30.38
2022-07-30T09:05:40.874Z,30.49
2022-07-30T09:08:09.045Z,30.59
2022-07-30T09:10:36.004Z,30.75
2022-07-30T09:13:03.031Z,30.84
2022-07-30T09:15:29.922Z,30.90
2022-07-30T09:18:01.507Z,30.96
2022-07-30T09:20:34.238Z,31.12
2022-07-30T09:23:06.165Z,31.31
2022-07-30T09:25:52.244Z,31.52
2022-07-30T09:28:37.564Z,31.63
2022-07-30T09:31:23.644Z,31.61
2022-07-30T09:34:29.087Z,31.66
2022-07-30T09:37:25.105Z,31.72
2022-07-30T09:40:17.281Z,31.93
2022-07-30T09:43:07.114Z,32.11
2022-07-30T09:45:35.746Z,32.32
2022-07-30T09:48:03.152Z,32.58
2022-07-30T09:50:31.018Z,32.74
2022-07-30T09:53:16.803Z,32.95
2022-07-30T09:55:43.674Z,33.09
2022-07-30T09:58:12.985Z,33.20
2022-07-30T10:00:57.038Z,33.46
2022-07-30T10:03:47.890Z,33.58
2022-07-30T10:06:38.152Z,33.76
2022-07-30T10:09:30.669Z,33.90
2022-07-30T10:11:59.834Z,34.11
2022-07-30T10:14:32.265Z,34.22
2022-07-30T10:17:01.148Z,34.39
2022-07-30T10:19:40.202Z,34.46
2022-07-30T10:22:27.405Z,34.63
2022-07-30T10:25:16.357Z,34.77
2022-07-30T10:28:03.220Z,34.94
2022-07-30T10:30:32.475Z,35.12
2022-07-30T10:32:59.939Z,35.41
2022-07-30T10:35:34.417Z,35.56
2022-07-30T10:38:07.702Z,35.71
2022-07-30T10:40:39.437Z,36.02
2022-07-30T10:43:31.501Z,36.30
2022-07-30T10:46:19.967Z,36.56
2022-07-30T10:48:50.620Z,36.61
2022-07-30T10:51:18.527Z,36.71
2022-07-30T10:54:01.549Z,36.66
2022-07-30T10:56:28.482Z,36.79
2022-07-30T10:59:09.295Z,36.99
2022-07-30T11:02:08.174Z,37.25
2022-07-30T11:04:36.379Z,37.53
2022-07-30T11:07:21.637Z,37.88
2022-07-30T11:10:05.825Z,38.36
2022-07-30T11:13:02.074Z,38.47
2022-07-30T11:15:47.116Z,38.80
2022-07-30T11:18:15.325Z,39.10
2022-07-30T11:20:48.247Z,39.10
2022-07-30T11:23:46.336Z,39.04
2022-07-30T11:26:34.938Z,39.30
2022-07-30T11:29:01.825Z,39.40
2022-07-30T11:31:54.860Z,39.59
2022-07-30T11:34:30.814Z,39.82
2022-07-30T11:37:18.764Z,40.05
2022-07-30T11:40:15.952Z,40.10
2022-07-30T11:43:13.106Z,40.22
2022-07-30T11:45:40.270Z,40.58
2022-07-30T11:48:10.772Z,40.68
2022-07-30T11:50:37.918Z,40.34
2022-07-30T11:53:16.725Z,40.11
2022-07-30T11:55:45.991Z,40.16
2022-07-30T11:58:32.558Z,40.18
2022-07-30T12:01:09.305Z,39.93
2022-07-30T12:03:40.000Z,40.40
2022-07-30T12:06:09.478Z,40.67
2022-07-30T12:09:02.608Z,41.10
2022-07-30T12:11:33.305Z,41.69
2022-07-30T12:14:02.431Z,41.74
2022-07-30T12:16:30.988Z,41.81
2022-07-30T12:19:06.950Z,41.93
2022-07-30T12:21:36.647Z,42.00
2022-07-30T12:24:07.620Z,42.31
2022-07-30T12:26:34.971Z,42.47
2022-07-30T12:29:03.742Z,42.64
2022-07-30T12:31:30.619Z,42.36
2022-07-30T12:33:58.355Z,42.43
2022-07-30T12:36:31.114Z,42.68
2022-07-30T12:38:58.554Z,42.57
2022-07-30T12:41:42.839Z,42.66
2022-07-30T12:44:10.140Z,42.72
2022-07-30T12:46:43.445Z,42.54
2022-07-30T12:49:22.244Z,42.48
2022-07-30T12:51:51.451Z,42.43
2022-07-30T12:54:19.619Z,42.26
2022-07-30T12:56:56.987Z,42.11
2022-07-30T12:59:24.005Z,41.78
2022-07-30T13:01:52.479Z,41.66
2022-07-30T13:04:19.337Z,41.81
2022-07-30T13:07:06.360Z,41.26
2022-07-30T13:09:33.131Z,40.31
2022-07-30T13:12:00.210Z,39.69
2022-07-30T13:14:27.412Z,39.19
2022-07-30T13:16:56.428Z,38.83
2022-07-30T13:19:24.436Z,38.53
2022-07-30T13:21:51.455Z,38.17
2022-07-30T13:24:18.745Z,37.87
2022-07-30T13:26:45.750Z,37.73
2022-07-30T13:29:13.790Z,37.70
2022-07-30T13:31:42.428Z,37.49
2022-07-30T13:34:10.469Z,37.31
2022-07-30T13:36:37.228Z,37.26
2022-07-30T13:39:04.213Z,37.17
2022-07-30T13:41:31.051Z,37.05
2022-07-30T13:43:57.969Z,36.90
2022-07-30T13:46:24.837Z,36.81
2022-07-30T13:48:51.697Z,36.66
2022-07-30T13:51:18.854Z,36.56
2022-07-30T13:53:45.656Z,36.44
2022-07-30T13:56:13.127Z,36.24
2022-07-30T13:58:40.385Z,36.05
2022-07-30T14:01:07.560Z,35.86
2022-07-30T14:03:35.401Z,35.74
2022-07-30T14:06:10.959Z,35.76
2022-07-30T14:08:38.493Z,35.53
2022-07-30T14:11:05.287Z,35.27
2022-07-30T14:13:32.129Z,34.98
2022-07-30T14:15:59.007Z,34.84
2022-07-30T14:18:25.781Z,34.86
2022-07-30T14:20:53.828Z,34.89
2022-07-30T14:23:20.928Z,34.83
2022-07-30T14:25:47.757Z,34.84
2022-07-30T14:28:14.937Z,34.71
2022-07-30T14:30:41.871Z,34.28
2022-07-30T14:33:08.720Z,34.06
2022-07-30T14:35:35.633Z,33.89
2022-07-30T14:38:03.652Z,33.65
2022-07-30T14:40:30.496Z,33.65
2022-07-30T14:42:57.946Z,33.46
2022-07-30T14:45:25.463Z,33.23
2022-07-30T14:47:52.731Z,32.96
2022-07-30T14:50:19.767Z,32.93
2022-07-30T14:52:47.622Z,32.94
2022-07-30T14:55:14.448Z,32.83
2022-07-30T14:57:41.249Z,32.59
2022-07-30T15:00:10.942Z,32.48
2022-07-30T15:02:37.883Z,32.60
2022-07-30T15:05:04.949Z,33.20
2022-07-30T15:07:34.552Z,34.00
2022-07-30T15:10:02.057Z,34.53
2022-07-30T15:12:28.987Z,34.63
2022-07-30T15:14:55.994Z,35.06
2022-07-30T15:17:22.786Z,35.39
2022-07-30T15:19:50.769Z,35.73
2022-07-30T15:22:18.856Z,35.73
2022-07-30T15:24:45.688Z,35.61
2022-07-30T15:27:12.531Z,35.41
2022-07-30T15:29:39.385Z,35.35
2022-07-30T15:32:06.773Z,35.48
2022-07-30T15:34:37.197Z,35.75
2022-07-30T15:37:05.312Z,36.00
2022-07-30T15:39:33.245Z,36.17
2022-07-30T15:42:01.363Z,36.24
2022-07-30T15:44:28.678Z,35.83
2022-07-30T15:46:55.555Z,35.43
2022-07-30T15:49:22.518Z,35.48
2022-07-30T15:51:49.430Z,35.78
2022-07-30T15:54:22.889Z,36.04
2022-07-30T15:56:50.716Z,36.14
2022-07-30T15:59:17.904Z,35.93
2022-07-30T16:01:44.740Z,35.58
2022-07-30T16:04:19.915Z,34.80
2022-07-30T16:06:47.629Z,33.89
2022-07-30T16:09:14.737Z,33.22
2022-07-30T16:11:43.099Z,32.70
2022-07-30T16:14:10.484Z,32.52
2022-07-30T16:16:37.362Z,32.36
2022-07-30T16:19:04.562Z,32.29
2022-07-30T16:21:31.343Z,32.12
2022-07-30T16:23:58.233Z,32.00
2022-07-30T16:26:25.030Z,31.90
2022-07-30T16:28:51.918Z,32.54
2022-07-30T16:31:18.765Z,33.51
2022-07-30T16:33:45.941Z,33.19
2022-07-30T16:36:14.351Z,32.47
2022-07-30T16:38:41.482Z,31.97
2022-07-30T16:41:13.240Z,31.53
2022-07-30T16:43:40.740Z,31.15
2022-07-30T16:46:07.717Z,30.87
2022-07-30T16:48:34.832Z,30.70
2022-07-30T16:51:01.681Z,30.50
2022-07-30T16:53:28.816Z,30.30
2022-07-30T16:55:57.076Z,30.20
2022-07-30T16:58:28.449Z,30.14
2022-07-30T17:00:58.535Z,30.07
2022-07-30T17:03:25.624Z,29.98
2022-07-30T17:05:52.968Z,29.81
2022-07-30T17:08:24.868Z,29.70
2022-07-30T17:10:52.280Z,29.37
2022-07-30T17:13:19.284Z,28.91
2022-07-30T17:15:46.934Z,28.51
2022-07-30T17:18:14.069Z,28.32
2022-07-30T17:20:40.946Z,27.66
2022-07-30T17:23:08.090Z,26.93
2022-07-30T17:25:35.274Z,26.08
2022-07-30T17:28:02.275Z,25.57
2022-07-30T17:30:29.880Z,25.28
2022-07-30T17:32:56.754Z,25.27
2022-07-30T17:35:24.899Z,25.11
2022-07-30T17:37:51.850Z,25.14
2022-07-30T17:40:29.314Z,24.91
2022-07-30T17:43:04.031Z,24.87
2022-07-30T17:45:31.842Z,24.96
2022-07-30T17:47:58.682Z,25.03
2022-07-30T17:50:25.523Z,25.17
2022-07-30T17:52:52.454Z,25.29
2022-07-30T17:55:19.271Z,25.38
2022-07-30T17:57:46.131Z,25.54
2022-07-30T18:00:13.338Z,25.58
2022-07-30T18:02:40.183Z,25.60
2022-07-30T18:05:07.436Z,25.53
2022-07-30T18:07:34.289Z,25.53
2022-07-30T18:10:01.161Z,25.24
2022-07-30T18:12:27.980Z,25.12
2022-07-30T18:14:55.258Z,24.80
2022-07-30T18:17:21.987Z,24.34
2022-07-30T18:19:48.806Z,23.73
2022-07-30T18:22:16.071Z,23.14
2022-07-30T18:24:55.118Z,22.48
2022-07-30T18:27:22.011Z,22.31
2022-07-30T18:29:48.843Z,21.95
2022-07-30T18:32:15.770Z,21.58
2022-07-30T18:34:42.679Z,21.20
2022-07-30T18:37:09.442Z,20.94
2022-07-30T18:39:36.248Z,20.71
2022-07-30T18:42:03.827Z,20.51
2022-07-30T18:44:31.367Z,20.45
2022-07-30T18:46:58.214Z,20.39
2022-07-30T18:49:40.402Z,20.25
2022-07-30T18:52:07.764Z,20.17
2022-07-30T18:54:36.150Z,19.99
2022-07-30T18:57:03.123Z,20.00
2022-07-30T18:59:30.003Z,20.03
2022-07-30T19:01:56.826Z,19.94
2022-07-30T19:04:23.634Z,19.88
2022-07-30T19:06:50.453Z,20.00
2022-07-30T19:09:18.221Z,19.96
2022-07-30T19:11:45.914Z,19.93
2022-07-30T19:14:14.257Z,19.93
2022-07-30T19:16:42.504Z,19.89
2022-07-30T19:19:09.548Z,19.90
2022-07-30T19:21:36.547Z,19.88
2022-07-30T19:24:03.928Z,19.99
2022-07-30T19:26:30.850Z,19.91
2022-07-30T19:28:57.671Z,19.88
2022-07-30T19:31:24.532Z,19.98
2022-07-30T19:33:51.415Z,19.91
2022-07-30T19:36:20.889Z,19.87
2022-07-30T19:38:49.027Z,19.98
2022-07-30T19:41:16.555Z,19.93
2022-07-30T19:43:43.417Z,20.09
2022-07-30T19:46:25.281Z,20.23
2022-07-30T19:48:52.275Z,20.30
2022-07-30T19:51:20.919Z,20.29
2022-07-30T19:53:52.205Z,20.30
2022-07-30T19:56:19.502Z,20.32
2022-07-30T19:58:46.514Z,20.34
2022-07-30T20:01:15.836Z,20.30
2022-07-30T20:03:45.963Z,20.32
2022-07-30T20:06:15.130Z,20.35
2022-07-30T20:08:44.964Z,20.28
2022-07-30T20:11:14.078Z,20.17
2022-07-30T20:13:48.226Z,20.10
2022-07-30T20:16:15.349Z,20.08
2022-07-30T20:18:43.027Z,20.04
2022-07-30T20:21:15.142Z,19.98
2022-07-30T20:23:42.858Z,19.86
2022-07-30T20:26:13.055Z,19.83
2022-07-30T20:28:41.296Z,19.84
2022-07-30T20:31:08.745Z,20.01
2022-07-30T20:33:38.090Z,20.13
2022-07-30T20:36:06.367Z,20.06
2022-07-30T20:38:38.735Z,20.16
2022-07-30T20:41:09.920Z,20.18
2022-07-30T20:43:52.115Z,20.27
2022-07-30T20:46:19.975Z,20.32
2022-07-30T20:48:46.891Z,20.39
2022-07-30T20:51:14.010Z,20.48
2022-07-30T20:53:41.979Z,20.53
2022-07-30T20:56:13.341Z,20.56
2022-07-30T20:58:40.940Z,20.60
2022-07-30T21:01:07.973Z,20.65
2022-07-30T21:03:43.628Z,20.65
2022-07-30T21:06:15.075Z,20.57
2022-07-30T21:08:41.917Z,20.48
2022-07-30T21:11:09.741Z,20.51
2022-07-30T21:13:36.880Z,20.57
2022-07-30T21:16:04.459Z,20.50
2022-07-30T21:18:43.058Z,20.34
2022-07-30T21:21:17.693Z,20.10
2022-07-30T21:23:56.088Z,19.96
2022-07-30T21:26:23.423Z,19.90
2022-07-30T21:28:50.338Z,19.72
2022-07-30T21:31:18.953Z,19.78
2022-07-30T21:34:05.734Z,19.76
2022-07-30T21:36:32.672Z,19.79
2022-07-30T21:39:00.524Z,19.81
2022-07-30T21:41:40.311Z,19.86
2022-07-30T21:44:07.738Z,19.89
2022-07-30T21:46:34.556Z,19.87
2022-07-30T21:49:01.408Z,19.96
2022-07-30T21:51:28.227Z,19.95
2022-07-30T21:53:57.906Z,19.99
2022-07-30T21:56:24.777Z,20.00
2022-07-30T21:58:51.959Z,19.89
2022-07-30T22:01:22.591Z,19.85
2022-07-30T22:04:02.823Z,19.94
2022-07-30T22:09:33.838Z,19.96
2022-07-30T22:12:06.291Z,19.97
2022-07-30T22:14:33.982Z,20.00
2022-07-30T22:17:01.671Z,20.09
2022-07-30T22:19:31.264Z,20.12
2022-07-30T22:22:03.585Z,20.09
2022-07-30T22:24:45.678Z,19.97
2022-07-30T22:27:14.796Z,19.84
2022-07-30T22:29:43.261Z,19.83
2022-07-30T22:32:10.857Z,19.74
2022-07-30T22:34:37.774Z,19.68
2022-07-30T22:37:04.692Z,19.63
2022-07-30T22:39:51.242Z,19.58
2022-07-30T22:42:24.126Z,19.53
2022-07-30T22:45:09.732Z,19.45
2022-07-30T22:47:50.705Z,19.46
2022-07-30T22:50:25.908Z,19.53
2022-07-30T22:53:00.452Z,19.45
2022-07-30T22:55:40.312Z,19.45
2022-07-30T22:58:08.016Z,19.48
2022-07-30T23:00:36.985Z,19.52
2022-07-30T23:03:05.416Z,19.53
2022-07-30T23:05:35.224Z,19.48
2022-07-30T23:08:02.473Z,19.53
2022-07-30T23:10:29.398Z,19.55
2022-07-30T23:12:32.094Z,19.99
2022-07-30T23:12:56.344Z,19.56
2022-07-30T23:15:23.270Z,19.49
2022-07-30T23:17:50.080Z,19.50
2022-07-30T23:20:17.986Z,19.54
2022-07-30T23:22:44.806Z,19.61
2022-07-30T23:25:12.020Z,19.66
2022-07-30T23:27:39.479Z,19.65
2022-07-30T23:30:09.694Z,19.62
2022-07-30T23:32:36.853Z,19.59
2022-07-30T23:35:04.016Z,19.59
2022-07-30T23:37:38.036Z,19.64
2022-07-30T23:40:15.700Z,19.68
2022-07-30T23:42:42.523Z,19.67
2022-07-30T23:45:09.658Z,19.72
2022-07-30T23:48:01.470Z,19.74
2022-07-30T23:50:25.306Z,19.74
2022-07-30T23:52:52.140Z,19.73
2022-07-30T23:55:19.004Z,19.67
2022-07-30T23:57:45.784Z,19.66
